createdAt,value
2019-05-05T00:01:38.011Z,13.50
2019-05-05T00:04:24.446Z,13.50
2019-05-05T00:06:55.084Z,13.50
2019-05-05T00:09:25.250Z,13.40
2019-05-05T00:12:02.799Z,13.50
2019-05-05T00:14:40.189Z,13.50
2019-05-05T00:17:20.649Z,13.40
2019-05-05T00:19:49.925Z,13.40
2019-05-05T00:22:19.666Z,13.50
2019-05-05T00:24:49.385Z,13.50
2019-05-05T00:27:19.072Z,13.50
2019-05-05T00:29:48.685Z,13.60
2019-05-05T00:32:18.502Z,13.60
2019-05-05T00:34:48.315Z,13.60
2019-05-05T00:37:18.017Z,13.50
2019-05-05T00:39:47.834Z,13.50
2019-05-05T00:42:17.751Z,13.50
2019-05-05T00:44:47.456Z,13.30
2019-05-05T00:47:36.722Z,13.30
2019-05-05T00:50:10.664Z,13.30
2019-05-05T00:52:40.449Z,13.30
2019-05-05T00:55:10.569Z,13.40
2019-05-05T00:57:40.392Z,13.30
2019-05-05T01:00:20.229Z,13.30
2019-05-05T01:02:51.288Z,13.30
2019-05-05T01:05:22.517Z,13.30
2019-05-05T01:07:52.234Z,13.30
2019-05-05T01:10:22.034Z,13.30
2019-05-05T01:12:51.520Z,13.30
2019-05-05T01:15:21.245Z,13.30
2019-05-05T01:17:50.968Z,13.30
2019-05-05T01:20:20.673Z,13.30
2019-05-05T01:22:49.953Z,13.40
2019-05-05T01:25:19.385Z,13.40
2019-05-05T01:27:48.652Z,13.40
2019-05-05T01:30:21.181Z,13.30
2019-05-05T01:32:52.611Z,13.30
2019-05-05T01:35:22.312Z,13.30
2019-05-05T01:37:59.652Z,13.30
2019-05-05T01:40:36.705Z,13.30
2019-05-05T01:43:07.520Z,13.30
2019-05-05T01:45:37.230Z,13.30
2019-05-05T01:48:06.584Z,13.30
2019-05-05T01:50:36.144Z,13.30
2019-05-05T01:53:05.950Z,13.30
2019-05-05T01:55:35.761Z,13.30
2019-05-05T01:58:05.373Z,13.30
2019-05-05T02:00:35.185Z,13.20
2019-05-05T02:03:04.701Z,13.20
2019-05-05T02:05:34.973Z,13.20
2019-05-05T02:08:05.467Z,13.20
2019-05-05T02:10:35.150Z,13.20
2019-05-05T02:13:05.186Z,13.20
2019-05-05T02:15:34.977Z,13.20
2019-05-05T02:18:05.609Z,13.20
2019-05-05T02:20:49.425Z,13.20
2019-05-05T02:23:19.065Z,13.20
2019-05-05T02:25:48.509Z,13.20
2019-05-05T02:28:17.817Z,13.20
2019-05-05T02:31:06.626Z,13.20
2019-05-05T02:33:36.055Z,13.20
2019-05-05T02:36:05.836Z,13.10
2019-05-05T02:38:35.787Z,13.10
2019-05-05T02:41:05.558Z,13.00
2019-05-05T02:43:35.278Z,13.00
2019-05-05T02:46:14.173Z,13.00
2019-05-05T02:48:44.999Z,13.00
2019-05-05T02:51:15.234Z,13.00
2019-05-05T02:53:46.726Z,13.00
2019-05-05T02:56:20.938Z,13.00
2019-05-05T02:58:50.633Z,13.00
2019-05-05T03:01:34.192Z,12.90
2019-05-05T03:04:04.089Z,12.90
2019-05-05T03:06:34.405Z,12.90
2019-05-05T03:09:05.344Z,12.90
2019-05-05T03:11:36.495Z,12.90
2019-05-05T03:14:06.587Z,12.90
2019-05-05T03:16:37.014Z,12.90
2019-05-05T03:19:07.773Z,12.90
2019-05-05T03:21:37.788Z,12.90
2019-05-05T03:24:07.497Z,13.00
2019-05-05T03:26:37.315Z,13.00
2019-05-05T03:29:08.670Z,13.00
2019-05-05T03:31:38.683Z,13.00
2019-05-05T03:34:08.036Z,13.00
2019-05-05T03:36:37.389Z,13.00
2019-05-05T03:39:07.607Z,13.00
2019-05-05T03:41:44.686Z,13.00
2019-05-05T03:44:34.358Z,13.00
2019-05-05T03:47:03.875Z,13.00
2019-05-05T03:49:33.866Z,12.90
2019-05-05T03:52:04.815Z,12.90
2019-05-05T03:54:34.745Z,12.90
2019-05-05T03:57:09.566Z,12.90
2019-05-05T03:59:41.257Z,12.90
2019-05-05T04:02:14.168Z,12.90
2019-05-05T04:04:48.838Z,12.90
2019-05-05T04:07:18.221Z,12.90
2019-05-05T04:09:47.951Z,12.90
2019-05-05T04:12:17.865Z,12.90
2019-05-05T04:14:47.476Z,12.90
2019-05-05T04:17:37.153Z,12.90
2019-05-05T04:20:20.485Z,12.90
2019-05-05T04:22:50.302Z,12.90
2019-05-05T04:25:19.717Z,12.90
2019-05-05T04:27:49.513Z,12.80
2019-05-05T04:30:19.118Z,12.90
2019-05-05T04:32:48.830Z,12.90
2019-05-05T04:35:18.142Z,12.90
2019-05-05T04:37:47.747Z,12.90
2019-05-05T04:40:17.063Z,12.90
2019-05-05T04:42:46.949Z,12.90
2019-05-05T04:45:16.767Z,12.90
2019-05-05T04:47:48.115Z,12.90
2019-05-05T04:50:28.269Z,12.90
2019-05-05T04:52:59.505Z,13.00
2019-05-05T04:55:28.761Z,13.00
2019-05-05T04:57:58.520Z,13.00
2019-05-05T05:00:29.260Z,12.90
2019-05-05T05:03:00.608Z,13.00
2019-05-05T05:05:33.721Z,12.90
2019-05-05T05:08:04.023Z,12.90
2019-05-05T05:10:34.610Z,12.80
2019-05-05T05:13:04.770Z,12.80
2019-05-05T05:15:34.476Z,12.70
2019-05-05T05:18:08.800Z,12.70
2019-05-05T05:20:38.149Z,12.60
2019-05-05T05:23:07.910Z,12.60
2019-05-05T05:25:37.621Z,12.60
2019-05-05T05:28:07.234Z,12.50
2019-05-05T05:30:36.885Z,12.60
2019-05-05T05:33:06.546Z,12.60
2019-05-05T05:35:35.959Z,12.60
2019-05-05T05:38:05.665Z,12.60
2019-05-05T05:40:45.610Z,12.70
2019-05-05T05:43:16.665Z,12.70
2019-05-05T05:46:04.477Z,12.70
2019-05-05T05:51:39.262Z,12.40
2019-05-05T05:54:09.255Z,12.40
2019-05-05T05:56:38.700Z,12.40
2019-05-05T05:59:08.479Z,12.40
2019-05-05T06:01:38.388Z,12.30
2019-05-05T06:04:08.193Z,12.20
2019-05-05T06:06:37.815Z,12.20
2019-05-05T06:09:07.511Z,12.20
2019-05-05T06:11:37.221Z,12.10
2019-05-05T06:14:06.937Z,12.10
2019-05-05T06:16:36.541Z,12.10
2019-05-05T06:19:06.253Z,12.10
2019-05-05T06:21:35.970Z,12.00
2019-05-05T06:24:05.314Z,12.10
2019-05-05T06:26:35.084Z,12.10
2019-05-05T06:29:04.570Z,12.10
2019-05-05T06:31:34.167Z,12.10
2019-05-05T06:34:04.206Z,12.10
2019-05-05T06:36:34.024Z,12.10
2019-05-05T06:39:06.176Z,12.20
2019-05-05T06:41:53.903Z,12.20
2019-05-05T06:44:25.369Z,12.20
2019-05-05T06:47:04.471Z,12.20
2019-05-05T06:49:34.489Z,12.20
2019-05-05T06:52:05.565Z,12.30
2019-05-05T06:54:35.275Z,12.20
2019-05-05T06:57:04.847Z,12.20
2019-05-05T06:59:34.929Z,12.20
2019-05-05T07:02:04.761Z,12.20
2019-05-05T07:04:34.421Z,12.20
2019-05-05T07:07:05.141Z,12.30
2019-05-05T07:09:35.000Z,12.30
2019-05-05T07:12:04.816Z,12.30
2019-05-05T07:14:34.790Z,12.20
2019-05-05T07:17:05.145Z,12.20
2019-05-05T07:19:35.134Z,12.20
2019-05-05T07:22:05.874Z,12.10
2019-05-05T07:24:35.741Z,12.10
2019-05-05T07:27:05.693Z,12.10
2019-05-05T07:29:35.512Z,12.10
2019-05-05T07:32:05.378Z,12.20
2019-05-05T07:34:54.644Z,12.10
2019-05-05T07:37:24.622Z,12.20
2019-05-05T07:39:54.632Z,12.20
2019-05-05T07:42:24.452Z,12.20
2019-05-05T07:44:54.742Z,12.20
2019-05-05T07:47:25.504Z,12.20
2019-05-05T07:49:56.229Z,12.30
2019-05-05T07:52:25.942Z,12.30
2019-05-05T07:54:55.649Z,12.30
2019-05-05T07:57:25.359Z,12.30
2019-05-05T07:59:54.885Z,12.30
2019-05-05T08:02:24.469Z,12.30
2019-05-05T08:04:54.567Z,12.30
2019-05-05T08:07:24.405Z,12.40
2019-05-05T08:09:53.922Z,12.40
2019-05-05T08:12:24.920Z,12.40
2019-05-05T08:14:54.766Z,12.40
2019-05-05T08:17:26.218Z,12.40
2019-05-05T08:20:04.167Z,12.40
2019-05-05T08:22:34.087Z,12.50
2019-05-05T08:25:11.526Z,12.50
2019-05-05T08:27:44.573Z,12.50
2019-05-05T08:30:21.281Z,12.50
2019-05-05T08:32:54.433Z,12.50
2019-05-05T08:35:23.872Z,12.50
2019-05-05T08:37:54.233Z,12.50
2019-05-05T08:40:25.145Z,12.60
2019-05-05T08:42:54.869Z,12.60
2019-05-05T08:45:26.758Z,12.60
2019-05-05T08:47:57.363Z,12.60
2019-05-05T08:50:27.273Z,12.60
2019-05-05T08:52:57.074Z,12.60
2019-05-05T08:55:28.488Z,12.60
2019-05-05T08:57:58.455Z,12.60
2019-05-05T09:00:28.258Z,12.60
2019-05-05T09:02:58.066Z,12.60
2019-05-05T09:05:27.989Z,12.60
2019-05-05T09:07:57.709Z,12.60
2019-05-05T09:10:27.519Z,12.60
2019-05-05T09:12:58.041Z,12.60
2019-05-05T09:15:29.597Z,12.60
2019-05-05T09:17:59.578Z,12.50
2019-05-05T09:20:48.865Z,12.50
2019-05-05T09:23:18.473Z,12.40
2019-05-05T09:26:07.950Z,12.40
2019-05-05T09:28:57.302Z,12.20
2019-05-05T09:31:27.039Z,12.20
2019-05-05T09:33:57.172Z,12.20
2019-05-05T09:36:26.983Z,12.20
2019-05-05T09:38:56.881Z,12.10
2019-05-05T09:41:27.436Z,12.10
2019-05-05T09:43:56.809Z,12.10
2019-05-05T09:46:26.523Z,12.00
2019-05-05T09:48:55.878Z,12.00
2019-05-05T09:51:25.634Z,11.90
2019-05-05T09:53:56.363Z,11.90
2019-05-05T09:56:25.609Z,11.90
2019-05-05T09:58:55.075Z,11.80
2019-05-05T10:01:24.614Z,11.70
2019-05-05T10:03:56.650Z,11.70
2019-05-05T10:06:26.358Z,11.70
2019-05-05T10:08:57.086Z,11.70
2019-05-05T10:11:26.903Z,11.60
2019-05-05T10:13:56.585Z,11.70
2019-05-05T10:16:26.418Z,11.60
2019-05-05T10:18:56.248Z,11.60
2019-05-05T10:21:26.055Z,11.60
2019-05-05T10:24:00.117Z,11.60
2019-05-05T10:26:29.877Z,11.60
2019-05-05T10:29:01.211Z,11.60
2019-05-05T10:31:30.826Z,11.60
2019-05-05T10:34:05.349Z,11.60
2019-05-05T10:36:35.060Z,11.60
2019-05-05T10:39:07.973Z,11.70
2019-05-05T10:41:37.757Z,11.70
2019-05-05T10:44:08.606Z,11.70
2019-05-05T10:46:38.323Z,11.70
2019-05-05T10:49:08.011Z,11.80
2019-05-05T10:51:37.722Z,11.90
2019-05-05T10:54:07.870Z,11.90
2019-05-05T10:56:38.386Z,11.90
2019-05-05T10:59:08.758Z,11.90
2019-05-05T11:01:38.815Z,12.00
2019-05-05T11:04:08.637Z,12.00
2019-05-05T11:06:37.957Z,12.10
2019-05-05T11:09:08.225Z,12.10
2019-05-05T11:11:37.856Z,12.20
2019-05-05T11:14:07.676Z,12.30
2019-05-05T11:16:37.588Z,12.30
2019-05-05T11:19:07.398Z,12.30
2019-05-05T11:21:45.263Z,12.30
2019-05-05T11:24:16.345Z,12.40
2019-05-05T11:26:46.161Z,12.40
2019-05-05T11:29:15.970Z,12.40
2019-05-05T11:31:46.919Z,12.40
2019-05-05T11:34:21.134Z,12.40
2019-05-05T11:36:58.061Z,12.50
2019-05-05T11:39:27.405Z,12.40
2019-05-05T11:41:56.959Z,12.50
2019-05-05T11:44:26.723Z,12.50
2019-05-05T11:47:03.548Z,12.60
2019-05-05T11:49:34.434Z,12.60
2019-05-05T11:52:04.907Z,12.60
2019-05-05T11:54:34.737Z,12.70
2019-05-05T11:57:04.536Z,12.70
2019-05-05T11:59:34.504Z,12.70
2019-05-05T12:02:04.022Z,12.60
2019-05-05T12:04:33.843Z,12.60
2019-05-05T12:07:04.185Z,12.60
2019-05-05T12:15:13.439Z,12.50
2019-05-05T12:17:44.301Z,12.50
2019-05-05T12:20:16.984Z,12.40
2019-05-05T12:22:47.249Z,12.60
2019-05-05T12:25:34.903Z,12.50
2019-05-05T12:28:09.198Z,12.50
2019-05-05T12:30:39.065Z,12.50
2019-05-05T12:33:09.290Z,12.40
2019-05-05T12:35:40.744Z,12.30
2019-05-05T12:38:11.651Z,12.30
2019-05-05T12:40:41.585Z,12.40
2019-05-05T12:43:11.596Z,12.30
2019-05-05T12:45:46.295Z,12.30
2019-05-05T12:48:17.795Z,12.30
2019-05-05T12:50:47.694Z,12.30
2019-05-05T12:53:17.638Z,12.40
2019-05-05T12:55:47.526Z,12.40
2019-05-05T12:58:19.053Z,12.40
2019-05-05T13:01:08.942Z,12.40
2019-05-05T13:03:39.178Z,12.40
2019-05-05T13:06:09.965Z,12.40
2019-05-05T13:08:40.611Z,12.40
2019-05-05T13:11:12.673Z,12.40
2019-05-05T13:13:44.894Z,12.50
2019-05-05T13:16:16.333Z,12.50
2019-05-05T13:18:46.969Z,12.50
2019-05-05T13:21:19.399Z,12.50
2019-05-05T13:24:23.826Z,12.40
2019-05-05T13:27:09.941Z,12.30
2019-05-05T13:29:35.790Z,12.20
2019-05-05T13:32:06.068Z,12.20
2019-05-05T13:34:36.139Z,12.20
2019-05-05T13:37:06.164Z,12.10
2019-05-05T13:39:36.230Z,12.10
2019-05-05T13:42:08.029Z,12.20
2019-05-05T13:44:56.261Z,12.10
2019-05-05T13:47:26.393Z,12.10
2019-05-05T13:49:57.782Z,12.10
2019-05-05T13:52:29.232Z,12.00
2019-05-05T13:55:13.903Z,12.00
2019-05-05T13:57:45.466Z,12.00
2019-05-05T14:00:16.937Z,11.90
2019-05-05T14:02:48.513Z,11.90
2019-05-05T14:05:18.517Z,11.90
2019-05-05T14:07:48.221Z,11.80
2019-05-05T14:10:17.945Z,11.80
2019-05-05T14:12:48.443Z,11.70
2019-05-05T14:15:18.623Z,11.70
2019-05-05T14:17:48.601Z,11.60
2019-05-05T14:20:18.630Z,11.60
2019-05-05T14:22:51.130Z,11.60
2019-05-05T14:25:21.340Z,11.50
2019-05-05T14:27:50.759Z,11.50
2019-05-05T14:30:38.856Z,11.40
2019-05-05T14:33:09.940Z,11.40
2019-05-05T14:35:44.746Z,11.40
2019-05-05T14:38:23.601Z,11.40
2019-05-05T14:41:15.244Z,11.40
2019-05-05T14:43:44.653Z,11.30
2019-05-05T14:46:14.605Z,11.30
2019-05-05T14:48:44.265Z,11.30
2019-05-05T14:51:14.524Z,11.30
2019-05-05T14:53:44.170Z,11.30
2019-05-05T14:56:14.066Z,11.30
2019-05-05T14:58:44.240Z,11.30
2019-05-05T15:01:15.318Z,11.20
2019-05-05T15:03:45.142Z,11.20
2019-05-05T15:06:38.193Z,11.20
2019-05-05T15:09:21.721Z,11.20
2019-05-05T15:11:53.821Z,11.10
2019-05-05T15:14:24.380Z,11.00
2019-05-05T15:16:55.112Z,11.00
2019-05-05T15:19:24.737Z,11.00
2019-05-05T15:21:54.590Z,10.90
2019-05-05T15:24:24.581Z,11.00
2019-05-05T15:26:55.135Z,10.90
2019-05-05T15:29:25.397Z,10.90
2019-05-05T15:31:55.772Z,10.90
2019-05-05T15:34:25.592Z,10.80
2019-05-05T15:36:56.012Z,10.80
2019-05-05T15:39:25.642Z,10.80
2019-05-05T15:41:55.330Z,10.80
2019-05-05T15:44:25.037Z,10.80
2019-05-05T15:46:57.748Z,10.80
2019-05-05T15:49:26.004Z,10.80
2019-05-05T15:51:55.610Z,10.70
2019-05-05T15:54:25.310Z,10.70
2019-05-05T15:57:04.957Z,10.70
2019-05-05T15:59:26.795Z,10.60
2019-05-05T16:01:56.498Z,10.60
2019-05-05T16:04:26.404Z,10.70
2019-05-05T16:06:56.173Z,10.60
2019-05-05T16:09:26.021Z,10.60
2019-05-05T16:11:55.630Z,10.60
2019-05-05T16:14:25.854Z,10.60
2019-05-05T16:16:57.100Z,10.60
2019-05-05T16:19:37.361Z,10.60
2019-05-05T16:22:08.705Z,10.60
2019-05-05T16:24:40.211Z,10.60
2019-05-05T16:27:21.494Z,10.60
2019-05-05T16:29:41.115Z,10.60
2019-05-05T16:32:21.240Z,10.60
2019-05-05T16:34:43.119Z,10.60
2019-05-05T16:37:14.312Z,10.50
2019-05-05T16:39:44.804Z,10.50
2019-05-05T16:42:15.454Z,10.50
2019-05-05T16:44:47.180Z,10.50
2019-05-05T16:47:17.892Z,10.50
2019-05-05T16:50:09.443Z,10.40
2019-05-05T16:52:43.461Z,10.40
2019-05-05T16:55:34.468Z,10.40
2019-05-05T16:58:07.129Z,10.40
2019-05-05T17:00:38.366Z,10.30
2019-05-05T17:03:08.175Z,10.30
2019-05-05T17:05:37.991Z,10.40
2019-05-05T17:08:07.317Z,10.40
2019-05-05T17:10:37.007Z,10.30
2019-05-05T17:13:08.727Z,10.30
2019-05-05T17:15:41.044Z,10.30
2019-05-05T17:18:35.198Z,10.20
2019-05-05T17:21:04.644Z,10.20
2019-05-05T17:23:34.960Z,10.30
2019-05-05T17:26:05.360Z,10.20
2019-05-05T17:28:39.517Z,10.20
2019-05-05T17:31:10.454Z,10.20
2019-05-05T17:33:40.672Z,10.30
2019-05-05T17:36:10.467Z,10.20
2019-05-05T17:38:39.882Z,10.20
2019-05-05T17:41:13.872Z,10.20
2019-05-05T17:43:45.150Z,10.30
2019-05-05T17:46:16.561Z,10.30
2019-05-05T17:48:50.939Z,10.30
2019-05-05T17:51:38.617Z,10.30
2019-05-05T17:54:15.894Z,10.10
2019-05-05T17:56:45.843Z,10.10
2019-05-05T17:59:15.532Z,10.00
2019-05-05T18:01:45.437Z,10.10
2019-05-05T18:04:14.724Z,10.10
2019-05-05T18:06:57.975Z,10.10
2019-05-05T18:09:46.213Z,10.00
2019-05-05T18:12:29.456Z,10.00
2019-05-05T18:15:06.629Z,9.90
2019-05-05T18:17:36.342Z,9.90
2019-05-05T18:20:06.666Z,9.80
2019-05-05T18:22:36.370Z,9.80
2019-05-05T18:25:06.802Z,9.80
2019-05-05T18:27:36.505Z,9.80
2019-05-05T18:30:06.929Z,9.70
2019-05-05T18:32:36.746Z,9.70
2019-05-05T18:35:06.883Z,9.80
2019-05-05T18:37:36.295Z,9.80
2019-05-05T18:40:08.945Z,9.80
2019-05-05T18:42:38.766Z,9.70
2019-05-05T18:45:12.800Z,9.70
2019-05-05T18:47:43.375Z,9.80
2019-05-05T18:50:13.627Z,9.80
2019-05-05T18:52:47.003Z,9.70
2019-05-05T18:55:14.778Z,9.70
2019-05-05T18:57:44.606Z,9.70
2019-05-05T19:00:16.054Z,9.70
2019-05-05T19:02:47.410Z,9.60
2019-05-05T19:05:18.742Z,9.60
2019-05-05T19:07:55.524Z,9.50
2019-05-05T19:10:21.357Z,9.50
2019-05-05T19:12:51.172Z,9.50
2019-05-05T19:15:24.239Z,9.50
2019-05-05T19:17:53.160Z,9.50
2019-05-05T19:20:27.799Z,9.50
2019-05-05T19:23:02.890Z,9.50
2019-05-05T19:25:32.187Z,9.40
2019-05-05T19:28:02.222Z,9.40
2019-05-05T19:30:35.827Z,9.30
2019-05-05T19:33:04.496Z,9.30
2019-05-05T19:35:41.941Z,9.30
2019-05-05T19:38:05.984Z,9.30
2019-05-05T19:40:35.839Z,9.30
2019-05-05T19:43:05.671Z,9.30
2019-05-05T19:45:35.513Z,9.30
2019-05-05T19:48:05.978Z,9.30
2019-05-05T19:50:41.488Z,9.20
2019-05-05T19:53:25.010Z,9.20
2019-05-05T19:55:55.083Z,9.30
2019-05-05T19:58:24.842Z,9.30
2019-05-05T20:00:57.118Z,9.30
2019-05-05T20:03:27.050Z,9.30
2019-05-05T20:05:58.876Z,9.30
2019-05-05T20:08:40.572Z,9.30
2019-05-05T20:11:04.800Z,9.40
2019-05-05T20:13:34.780Z,9.30
2019-05-05T20:16:09.668Z,9.40
2019-05-05T20:18:40.780Z,9.40
2019-05-05T20:21:14.414Z,9.40
2019-05-05T20:23:43.758Z,9.40
2019-05-05T20:26:14.582Z,9.30
2019-05-05T20:28:45.229Z,9.30
2019-05-05T20:31:17.505Z,9.30
2019-05-05T20:34:06.355Z,9.30
2019-05-05T20:36:38.717Z,9.30
2019-05-05T20:39:08.855Z,9.30
2019-05-05T20:41:39.919Z,9.30
2019-05-05T20:44:09.846Z,9.30
2019-05-05T20:46:39.673Z,9.30
2019-05-05T20:49:09.821Z,9.30
2019-05-05T20:51:39.843Z,9.30
2019-05-05T20:54:09.870Z,9.30
2019-05-05T20:56:39.798Z,9.40
2019-05-05T20:59:10.249Z,9.40
2019-05-05T21:01:43.415Z,9.50
2019-05-05T21:04:14.129Z,9.40
2019-05-05T21:06:44.422Z,9.50
2019-05-05T21:09:14.527Z,9.50
2019-05-05T21:11:46.555Z,9.60
2019-05-05T21:14:16.089Z,9.50
2019-05-05T21:16:45.537Z,9.50
2019-05-05T21:19:15.281Z,9.40
2019-05-05T21:21:49.382Z,9.40
2019-05-05T21:24:19.240Z,9.40
2019-05-05T21:26:56.184Z,9.40
2019-05-05T21:29:38.432Z,9.40
2019-05-05T21:31:57.130Z,9.30
2019-05-05T21:34:26.942Z,9.30
2019-05-05T21:36:56.651Z,9.20
2019-05-05T21:39:26.257Z,9.20
2019-05-05T21:41:55.970Z,9.20
2019-05-05T21:44:25.421Z,9.10
2019-05-05T21:46:55.194Z,9.10
2019-05-05T21:49:24.894Z,9.10
2019-05-05T21:52:14.355Z,9.10
2019-05-05T21:55:04.089Z,9.20
2019-05-05T21:57:41.336Z,9.10
2019-05-05T22:00:13.960Z,9.10
2019-05-05T22:02:45.365Z,9.10
2019-05-05T22:05:14.692Z,9.10
2019-05-05T22:07:44.374Z,9.10
2019-05-05T22:10:13.793Z,9.10
2019-05-05T22:12:44.734Z,9.20
2019-05-05T22:15:14.625Z,9.20
2019-05-05T22:17:44.803Z,9.20
2019-05-05T22:20:15.898Z,9.20
2019-05-05T22:22:46.322Z,9.20
2019-05-05T22:25:16.026Z,9.20
2019-05-05T22:27:45.741Z,9.20
2019-05-05T22:30:15.129Z,9.30
2019-05-05T22:32:44.849Z,9.30
2019-05-05T22:35:16.346Z,9.30
2019-05-05T22:37:45.707Z,9.30
2019-05-05T22:40:24.575Z,9.30
2019-05-05T22:42:54.756Z,9.30
2019-05-05T22:45:24.569Z,9.20
2019-05-05T22:47:54.416Z,9.20
2019-05-05T22:50:24.710Z,9.20
2019-05-05T22:52:54.744Z,9.20
2019-05-05T22:55:24.718Z,9.20
2019-05-05T22:57:54.545Z,9.20
2019-05-05T23:00:29.223Z,9.20
2019-05-05T23:03:04.472Z,9.20
2019-05-05T23:05:47.201Z,9.20
2019-05-05T23:08:18.651Z,9.20
2019-05-05T23:10:48.491Z,9.20
2019-05-05T23:13:18.301Z,9.20
2019-05-05T23:15:54.334Z,9.30
2019-05-05T23:18:25.630Z,9.30
2019-05-05T23:21:05.972Z,9.30
2019-05-05T23:23:46.429Z,9.30
2019-05-05T23:26:17.336Z,9.30
2019-05-05T23:28:46.650Z,9.20
2019-05-05T23:31:16.281Z,9.20
2019-05-05T23:33:47.014Z,9.20
2019-05-05T23:36:16.720Z,9.20
2019-05-05T23:38:46.333Z,9.20
2019-05-05T23:41:15.938Z,9.20
2019-05-05T23:43:45.550Z,9.20
2019-05-05T23:46:15.150Z,9.20
2019-05-05T23:48:44.385Z,9.10
2019-05-05T23:51:14.101Z,9.20
2019-05-05T23:53:44.552Z,9.20
2019-05-05T23:56:14.095Z,9.20
2019-05-05T23:58:44.055Z,9.30
